Time;durP1;ratioP1;P1;durP2;ratioP2;P2;SDS_P1;SDS_P2;PMS_P1;PMS_P2;Temp;Humidity;BMP_temperature;BMP_pressure;BME280_temperature;BME280_humidity;BME280_pressure;Samples;Min_cycle;Max_cycle;Signal;HPM_P1;HPM_P2
2022/07/04 00:00:22;;;;;;;23.97;11.30;;;;;;;;;;5080253;28;20076;-67
2022/07/04 00:02:48;;;;;;;19.87;14.30;;;;;;;;;;5076483;28;20035;-67
2022/07/04 00:05:14;;;;;;;25.50;16.50;;;;;;;;;;5084168;28;20414;-67
2022/07/04 00:07:40;;;;;;;27.97;17.90;;;;;;;;;;5075441;28;20020;-67
2022/07/04 00:10:06;;;;;;;21.83;15.40;;;;;;;;;;5081859;28;20419;-66
2022/07/04 00:12:31;;;;;;;18.67;13.03;;;;;;;;;;5089372;28;20055;-67
2022/07/04 00:14:56;;;;;;;18.90;13.37;;;;;;;;;;5090380;28;20028;-67
2022/07/04 00:17:21;;;;;;;20.60;14.10;;;;;;;;;;5085476;28;20039;-67
2022/07/04 00:19:47;;;;;;;20.03;13.77;;;;;;;;;;5085680;28;20032;-67
2022/07/04 00:22:12;;;;;;;20.57;14.37;;;;;;;;;;5091205;28;20039;-66
2022/07/04 00:24:37;;;;;;;20.47;13.27;;;;;;;;;;5084413;28;20036;-67
2022/07/04 00:27:03;;;;;;;23.07;14.93;;;;;;;;;;5074160;28;20050;-67
2022/07/04 00:29:29;;;;;;;21.60;12.93;;;;;;;;;;5090421;28;20135;-67
2022/07/04 00:31:55;;;;;;;25.37;16.60;;;;;;;;;;5088939;28;20025;-67
2022/07/04 00:34:20;;;;;;;26.67;17.57;;;;;;;;;;5078168;28;20058;-67
2022/07/04 00:36:45;;;;;;;30.77;19.53;;;;;;;;;;5083441;28;20035;-66
2022/07/04 00:39:10;;;;;;;31.50;19.93;;;;;;;;;;5074833;28;20021;-67
2022/07/04 00:41:36;;;;;;;31.13;21.30;;;;;;;;;;5076517;28;20032;-67
2022/07/04 00:44:08;;;;;;;38.90;21.50;;;;;;;;;;5084292;28;20103;-67
2022/07/04 00:46:33;;;;;;;38.87;22.93;;;;;;;;;;5091066;28;20036;-67
2022/07/04 00:48:59;;;;;;;38.63;23.97;;;;;;;;;;5089070;28;20024;-66
2022/07/04 00:51:24;;;;;;;41.17;24.20;;;;;;;;;;5082279;28;20107;-67
2022/07/04 00:53:50;;;;;;;41.33;25.30;;;;;;;;;;5080709;28;20516;-67
2022/07/04 00:56:16;;;;;;;43.33;24.43;;;;;;;;;;5075759;28;20140;-67
2022/07/04 00:58:41;;;;;;;43.30;24.83;;;;;;;;;;5080631;28;20032;-66
2022/07/04 01:01:06;;;;;;;39.33;23.90;;;;;;;;;;5081639;28;20035;-67
2022/07/04 01:03:31;;;;;;;39.47;23.57;;;;;;;;;;5084905;28;20028;-67
2022/07/04 01:05:58;;;;;;;45.20;25.00;;;;;;;;;;5078879;28;20073;-67
2022/07/04 01:08:23;;;;;;;40.33;24.73;;;;;;;;;;5090234;28;20299;-67
2022/07/04 01:10:49;;;;;;;41.90;24.13;;;;;;;;;;5082789;28;20034;-67
2022/07/04 01:13:23;;;;;;;37.00;24.37;;;;;;;;;;5086440;28;20039;-66
2022/07/04 01:15:50;;;;;;;41.63;25.73;;;;;;;;;;5073587;28;20032;-67
2022/07/04 01:18:16;;;;;;;45.20;26.67;;;;;;;;;;5082337;28;20021;-67
2022/07/04 01:20:41;;;;;;;46.60;26.43;;;;;;;;;;5087734;28;20258;-67
2022/07/04 01:23:06;;;;;;;40.93;25.20;;;;;;;;;;5090431;28;20554;-67
2022/07/04 01:25:32;;;;;;;41.50;25.40;;;;;;;;;;5083835;28;20032;-66
2022/07/04 01:27:58;;;;;;;63.40;27.60;;;;;;;;;;5073898;28;20376;-67
2022/07/04 01:30:23;;;;;;;45.73;27.03;;;;;;;;;;5080065;28;20008;-67
2022/07/04 01:32:49;;;;;;;47.37;27.27;;;;;;;;;;5088008;28;20232;-67
2022/07/04 01:35:14;;;;;;;46.37;27.37;;;;;;;;;;5070916;28;20020;-67
2022/07/04 01:37:39;;;;;;;47.70;27.57;;;;;;;;;;5071116;28;20388;-67
2022/07/04 01:40:05;;;;;;;47.30;28.33;;;;;;;;;;5071645;28;20128;-67
2022/07/04 01:42:30;;;;;;;49.33;28.87;;;;;;;;;;5080193;28;20016;-67
2022/07/04 01:44:55;;;;;;;54.10;29.60;;;;;;;;;;5083417;28;20597;-67
2022/07/04 01:47:21;;;;;;;56.57;30.33;;;;;;;;;;5090602;28;20472;-67
2022/07/04 01:49:46;;;;;;;58.37;31.07;;;;;;;;;;5079298;28;20073;-67
2022/07/04 01:52:11;;;;;;;55.80;30.97;;;;;;;;;;5070902;28;20039;-66
2022/07/04 01:54:36;;;;;;;61.83;31.60;;;;;;;;;;5077146;28;20056;-66
2022/07/04 01:57:02;;;;;;;57.47;31.90;;;;;;;;;;5084184;28;20471;-67
2022/07/04 02:02:11;;;;;;;64.33;32.77;;;;;;;;;;5074997;28;20031;-66
2022/07/04 02:04:36;;;;;;;70.37;35.30;;;;;;;;;;5084524;28;20036;-67
2022/07/04 02:07:01;;;;;;;68.33;35.43;;;;;;;;;;5095334;28;20032;-67
2022/07/04 02:09:28;;;;;;;76.13;37.07;;;;;;;;;;5093928;28;20104;-67
2022/07/04 02:14:36;;;;;;;74.40;37.03;;;;;;;;;;5089691;28;20062;-67
2022/07/04 02:17:02;;;;;;;85.23;38.03;;;;;;;;;;5081420;28;20445;-66
2022/07/04 02:19:27;;;;;;;76.90;38.40;;;;;;;;;;5078826;28;20399;-66
2022/07/04 02:21:53;;;;;;;75.07;38.17;;;;;;;;;;5094264;28;20028;-66
2022/07/04 02:24:18;;;;;;;79.17;39.57;;;;;;;;;;5093004;28;20032;-66
2022/07/04 02:26:44;;;;;;;84.03;41.03;;;;;;;;;;5085104;28;20088;-67
2022/07/04 02:29:09;;;;;;;83.73;40.23;;;;;;;;;;5093097;28;20020;-67
2022/07/04 02:31:34;;;;;;;91.13;42.63;;;;;;;;;;5094885;28;20028;-67
2022/07/04 02:33:59;;;;;;;92.73;41.50;;;;;;;;;;5089215;28;20028;-66
2022/07/04 02:36:24;;;;;;;85.23;42.00;;;;;;;;;;5074280;28;20460;-66
2022/07/04 02:38:50;;;;;;;88.87;42.50;;;;;;;;;;5081076;28;20047;-67
2022/07/04 02:41:15;;;;;;;87.50;42.10;;;;;;;;;;5088338;28;20059;-66
2022/07/04 02:43:40;;;;;;;92.97;43.10;;;;;;;;;;5076752;28;20396;-67
2022/07/04 02:46:06;;;;;;;80.50;40.90;;;;;;;;;;5091933;28;20030;-67
2022/07/04 02:48:31;;;;;;;89.57;42.03;;;;;;;;;;5092965;28;20056;-66
2022/07/04 02:50:56;;;;;;;93.37;42.80;;;;;;;;;;5092124;28;20019;-67
2022/07/04 02:53:22;;;;;;;86.60;40.27;;;;;;;;;;5093313;28;20407;-67
2022/07/04 02:55:47;;;;;;;95.47;42.77;;;;;;;;;;5092569;28;20395;-66
2022/07/04 02:58:12;;;;;;;80.77;40.27;;;;;;;;;;5090354;28;20468;-67
2022/07/04 03:00:37;;;;;;;89.93;43.07;;;;;;;;;;5086859;28;20069;-67
2022/07/04 03:03:03;;;;;;;93.37;43.33;;;;;;;;;;5092428;28;20085;-67
2022/07/04 03:05:31;;;;;;;96.13;43.03;;;;;;;;;;5093427;28;20024;-66
2022/07/04 03:07:57;;;;;;;94.07;42.83;;;;;;;;;;5091747;28;20475;-67
2022/07/04 03:10:22;;;;;;;89.80;41.17;;;;;;;;;;5082720;28;20028;-67
2022/07/04 03:12:48;;;;;;;94.50;42.27;;;;;;;;;;5077929;28;20024;-66
2022/07/04 03:15:13;;;;;;;90.87;42.50;;;;;;;;;;5088661;28;20071;-67
2022/07/04 03:17:38;;;;;;;102.13;42.93;;;;;;;;;;5087571;28;20028;-66
2022/07/04 03:20:03;;;;;;;97.00;42.93;;;;;;;;;;5089712;28;20031;-67
2022/07/04 03:22:29;;;;;;;98.20;42.07;;;;;;;;;;5092147;28;20494;-67
2022/07/04 03:24:54;;;;;;;96.57;42.93;;;;;;;;;;5080271;28;20030;-67
2022/07/04 03:27:19;;;;;;;98.60;43.97;;;;;;;;;;5088261;28;20104;-66
2022/07/04 03:29:45;;;;;;;90.40;40.73;;;;;;;;;;5089448;28;20050;-67
2022/07/04 03:32:10;;;;;;;91.10;41.83;;;;;;;;;;5093750;28;20031;-67
2022/07/04 03:34:35;;;;;;;93.70;42.30;;;;;;;;;;5075408;28;20016;-67
2022/07/04 03:37:00;;;;;;;88.83;41.03;;;;;;;;;;5073153;28;20036;-67
2022/07/04 03:39:26;;;;;;;85.97;37.40;;;;;;;;;;5080502;28;20392;-66
2022/07/04 03:41:51;;;;;;;51.60;28.83;;;;;;;;;;5093494;28;20035;-67
2022/07/04 03:44:16;;;;;;;62.80;31.03;;;;;;;;;;5090003;28;20046;-66
2022/07/04 03:46:41;;;;;;;64.33;32.73;;;;;;;;;;5091346;28;20483;-66
2022/07/04 03:49:07;;;;;;;69.30;35.40;;;;;;;;;;5087350;28;20395;-67
2022/07/04 03:51:32;;;;;;;64.90;35.00;;;;;;;;;;5088975;28;20038;-66
2022/07/04 03:53:57;;;;;;;54.23;31.27;;;;;;;;;;5091504;28;20062;-67
2022/07/04 03:56:22;;;;;;;53.00;26.70;;;;;;;;;;5087877;28;20024;-67
2022/07/04 03:58:50;;;;;;;52.27;30.90;;;;;;;;;;5081665;28;20115;-67
2022/07/04 04:01:17;;;;;;;59.33;31.57;;;;;;;;;;5091676;28;20097;-67
2022/07/04 04:06:42;;;;;;;54.90;31.03;;;;;;;;;;5090116;28;20068;-67
2022/07/04 04:09:12;;;;;;;46.67;28.60;;;;;;;;;;5074806;28;20116;-67
2022/07/04 04:11:37;;;;;;;35.30;23.37;;;;;;;;;;5084901;28;20024;-67
2022/07/04 04:14:02;;;;;;;24.83;17.43;;;;;;;;;;5078638;28;20444;-67
2022/07/04 04:16:28;;;;;;;22.30;13.73;;;;;;;;;;5071271;28;20114;-67
2022/07/04 04:18:53;;;;;;;19.10;11.07;;;;;;;;;;5077787;28;20020;-67
2022/07/04 04:21:18;;;;;;;15.00;9.23;;;;;;;;;;5083307;28;20051;-68
2022/07/04 04:23:44;;;;;;;13.17;8.53;;;;;;;;;;5077283;28;20092;-68
2022/07/04 04:26:09;;;;;;;12.37;8.07;;;;;;;;;;5087255;28;20028;-68
2022/07/04 04:28:34;;;;;;;12.03;8.10;;;;;;;;;;5088144;28;20095;-67
2022/07/04 04:30:59;;;;;;;15.88;7.40;;;;;;;;;;5084307;28;20388;-68
2022/07/04 04:33:25;;;;;;;14.40;7.10;;;;;;;;;;5072438;28;20426;-67
2022/07/04 04:35:50;;;;;;;12.00;6.68;;;;;;;;;;5091257;28;20063;-68
2022/07/04 04:38:16;;;;;;;14.02;6.85;;;;;;;;;;5088294;28;20016;-68
2022/07/04 04:40:41;;;;;;;14.30;7.03;;;;;;;;;;5085144;28;20028;-67
2022/07/04 04:43:06;;;;;;;12.57;6.60;;;;;;;;;;5076715;28;20084;-67
2022/07/04 04:45:31;;;;;;;15.82;6.53;;;;;;;;;;5075187;28;20111;-68
2022/07/04 04:47:57;;;;;;;19.58;6.60;;;;;;;;;;5089190;28;20024;-68
2022/07/04 04:50:22;;;;;;;12.20;5.90;;;;;;;;;;5080429;28;20024;-68
2022/07/04 04:52:47;;;;;;;15.52;6.15;;;;;;;;;;5090291;28;20486;-68
2022/07/04 04:55:12;;;;;;;15.68;6.13;;;;;;;;;;5089553;28;20036;-68
2022/07/04 04:57:38;;;;;;;11.57;6.30;;;;;;;;;;5075376;28;20036;-68
2022/07/04 05:00:04;;;;;;;10.50;6.10;;;;;;;;;;5081829;28;20027;-68
2022/07/04 05:02:29;;;;;;;8.88;5.45;;;;;;;;;;5079771;28;20405;-68
2022/07/04 05:04:54;;;;;;;8.05;5.63;;;;;;;;;;5081888;28;20107;-68
2022/07/04 05:07:20;;;;;;;9.10;5.78;;;;;;;;;;5080286;28;20384;-68
2022/07/04 05:09:45;;;;;;;8.60;5.03;;;;;;;;;;5091892;28;20020;-68
2022/07/04 05:12:10;;;;;;;8.30;5.28;;;;;;;;;;5091700;28;20036;-68
2022/07/04 05:14:36;;;;;;;14.82;5.18;;;;;;;;;;5085559;28;20032;-68
2022/07/04 05:17:01;;;;;;;10.32;4.65;;;;;;;;;;5075530;28;20383;-68
2022/07/04 05:19:26;;;;;;;9.55;5.15;;;;;;;;;;5077461;28;20112;-68
2022/07/04 05:21:51;;;;;;;11.43;4.85;;;;;;;;;;5079035;28;20446;-68
2022/07/04 05:24:17;;;;;;;6.93;4.13;;;;;;;;;;5082895;28;20024;-68
2022/07/04 05:26:42;;;;;;;10.60;4.60;;;;;;;;;;5079926;28;20027;-68
2022/07/04 05:29:07;;;;;;;9.02;4.53;;;;;;;;;;5084096;28;20412;-68
2022/07/04 05:31:33;;;;;;;9.15;4.40;;;;;;;;;;5086006;28;20095;-68
2022/07/04 05:33:58;;;;;;;9.25;3.97;;;;;;;;;;5076482;28;20020;-68
2022/07/04 05:36:23;;;;;;;7.00;3.60;;;;;;;;;;5088788;28;20024;-68
2022/07/04 05:38:49;;;;;;;6.40;3.53;;;;;;;;;;5083085;28;20016;-68
2022/07/04 05:41:14;;;;;;;6.80;3.30;;;;;;;;;;5091005;28;20027;-68
2022/07/04 05:43:39;;;;;;;6.45;3.40;;;;;;;;;;5086041;28;20375;-68
2022/07/04 05:46:04;;;;;;;8.63;3.17;;;;;;;;;;5070757;28;20036;-68
2022/07/04 05:48:30;;;;;;;6.45;3.42;;;;;;;;;;5078641;28;20037;-68
2022/07/04 05:50:55;;;;;;;7.65;3.90;;;;;;;;;;5076971;28;20021;-68
2022/07/04 05:53:20;;;;;;;7.75;3.70;;;;;;;;;;5070955;28;20357;-68
2022/07/04 05:55:45;;;;;;;6.95;3.92;;;;;;;;;;5090653;28;20020;-68
2022/07/04 05:58:11;;;;;;;8.00;3.72;;;;;;;;;;5089016;28;20028;-68
2022/07/04 06:00:39;;;;;;;9.80;4.15;;;;;;;;;;5074254;28;20033;-68
2022/07/04 06:03:04;;;;;;;7.05;3.65;;;;;;;;;;5072170;28;20511;-67
2022/07/04 06:05:29;;;;;;;8.23;3.25;;;;;;;;;;5070811;28;20021;-68
2022/07/04 06:07:55;;;;;;;6.47;3.30;;;;;;;;;;5072652;28;20025;-68
2022/07/04 06:10:20;;;;;;;7.28;2.97;;;;;;;;;;5091368;28;20031;-68
2022/07/04 06:12:45;;;;;;;6.35;3.05;;;;;;;;;;5089432;28;20032;-68
2022/07/04 06:15:10;;;;;;;5.07;2.70;;;;;;;;;;5073348;28;20113;-67
2022/07/04 06:17:36;;;;;;;6.75;3.00;;;;;;;;;;5085723;28;20031;-68
2022/07/04 06:20:01;;;;;;;8.20;3.10;;;;;;;;;;5088616;28;20338;-68
2022/07/04 06:22:27;;;;;;;7.47;3.08;;;;;;;;;;5075887;28;20073;-67
2022/07/04 06:24:52;;;;;;;5.55;2.75;;;;;;;;;;5076934;28;20528;-67
2022/07/04 06:27:17;;;;;;;5.93;2.63;;;;;;;;;;5082083;28;20365;-67
2022/07/04 06:29:42;;;;;;;7.43;2.72;;;;;;;;;;5088348;28;20070;-67
2022/07/04 06:32:08;;;;;;;4.55;2.35;;;;;;;;;;5080984;28;20017;-67
2022/07/04 06:37:17;;;;;;;5.45;2.47;;;;;;;;;;5081409;28;20027;-67
2022/07/04 06:39:42;;;;;;;4.88;2.13;;;;;;;;;;5092834;28;20411;-67
2022/07/04 06:42:08;;;;;;;5.38;1.92;;;;;;;;;;5089349;28;20053;-67
2022/07/04 06:44:33;;;;;;;6.65;2.30;;;;;;;;;;5074700;28;20020;-67
2022/07/04 06:46:58;;;;;;;4.25;2.00;;;;;;;;;;5073961;28;20043;-67
2022/07/04 06:49:23;;;;;;;10.13;2.00;;;;;;;;;;5080074;28;20479;-67
2022/07/04 06:51:48;;;;;;;4.47;2.17;;;;;;;;;;5094197;28;20032;-67
2022/07/04 06:54:14;;;;;;;3.78;1.60;;;;;;;;;;5092803;28;20016;-67
2022/07/04 06:56:39;;;;;;;3.97;1.50;;;;;;;;;;5084522;28;20070;-67
2022/07/04 06:59:06;;;;;;;5.63;1.70;;;;;;;;;;5094100;28;20044;-67
2022/07/04 07:01:31;;;;;;;6.50;1.67;;;;;;;;;;5078044;28;20488;-67
2022/07/04 07:03:56;;;;;;;4.00;1.50;;;;;;;;;;5086492;28;20077;-67
2022/07/04 07:06:23;;;;;;;4.43;1.73;;;;;;;;;;5094099;28;20047;-67
2022/07/04 07:08:48;;;;;;;4.40;1.75;;;;;;;;;;5075253;28;20025;-67
2022/07/04 07:11:14;;;;;;;3.22;1.30;;;;;;;;;;5080666;28;20086;-67
2022/07/04 07:13:40;;;;;;;5.93;1.60;;;;;;;;;;5073941;28;20024;-67
2022/07/04 07:16:05;;;;;;;4.18;1.80;;;;;;;;;;5083501;28;20392;-67
2022/07/04 07:18:31;;;;;;;6.03;1.92;;;;;;;;;;5077755;28;20021;-67
2022/07/04 07:20:56;;;;;;;7.25;1.75;;;;;;;;;;5073197;28;20537;-67
2022/07/04 07:23:21;;;;;;;4.72;1.60;;;;;;;;;;5075423;28;20541;-67
2022/07/04 07:25:46;;;;;;;6.18;1.40;;;;;;;;;;5085270;28;20103;-67
2022/07/04 07:28:11;;;;;;;7.07;1.50;;;;;;;;;;5092263;28;20024;-67
2022/07/04 07:30:37;;;;;;;8.23;1.50;;;;;;;;;;5090407;28;20562;-67
2022/07/04 07:33:02;;;;;;;4.15;1.42;;;;;;;;;;5093328;28;20044;-67
2022/07/04 07:35:27;;;;;;;4.95;1.48;;;;;;;;;;5092210;28;20031;-67
2022/07/04 07:37:52;;;;;;;4.35;1.35;;;;;;;;;;5093823;28;20519;-67
2022/07/04 07:40:18;;;;;;;4.35;1.50;;;;;;;;;;5086629;28;20809;-67
2022/07/04 07:42:43;;;;;;;4.85;1.40;;;;;;;;;;5090019;28;20464;-67
2022/07/04 07:45:08;;;;;;;4.43;1.10;;;;;;;;;;5073513;28;20105;-67
2022/07/04 07:47:33;;;;;;;5.10;1.17;;;;;;;;;;5090534;28;20380;-67
2022/07/04 07:49:59;;;;;;;4.65;1.30;;;;;;;;;;5079114;28;20061;-67
2022/07/04 07:52:24;;;;;;;3.70;1.30;;;;;;;;;;5087861;28;20040;-67
2022/07/04 07:54:49;;;;;;;6.13;1.30;;;;;;;;;;5085744;28;20031;-67
2022/07/04 07:57:14;;;;;;;2.85;0.93;;;;;;;;;;5091363;28;20028;-67
2022/07/04 07:59:40;;;;;;;5.93;1.20;;;;;;;;;;5092753;28;20095;-67
2022/07/04 08:02:05;;;;;;;4.15;1.20;;;;;;;;;;5091337;28;20055;-67
2022/07/04 08:04:37;;;;;;;4.95;1.20;;;;;;;;;;5088414;28;20016;-67
2022/07/04 08:07:03;;;;;;;11.27;1.60;;;;;;;;;;5073800;28;20446;-68
2022/07/04 08:09:28;;;;;;;4.82;1.20;;;;;;;;;;5075254;28;20066;-67
2022/07/04 08:11:53;;;;;;;5.60;1.17;;;;;;;;;;5080481;28;20024;-67
2022/07/04 08:14:19;;;;;;;3.17;1.20;;;;;;;;;;5079238;28;20098;-67
2022/07/04 08:16:44;;;;;;;3.72;1.10;;;;;;;;;;5074613;28;20094;-68
2022/07/04 08:19:09;;;;;;;6.65;1.20;;;;;;;;;;5080277;28;20031;-67
2022/07/04 08:21:35;;;;;;;6.07;1.00;;;;;;;;;;5088700;28;20391;-67
2022/07/04 08:24:00;;;;;;;4.18;0.90;;;;;;;;;;5075934;28;20578;-67
2022/07/04 08:26:25;;;;;;;5.65;0.90;;;;;;;;;;5078306;28;20510;-68
2022/07/04 08:28:51;;;;;;;2.40;0.75;;;;;;;;;;5076763;28;20096;-67
2022/07/04 08:31:17;;;;;;;3.25;0.80;;;;;;;;;;5078196;28;20016;-67
2022/07/04 08:33:42;;;;;;;3.67;0.80;;;;;;;;;;5080331;28;20024;-67
2022/07/04 08:36:08;;;;;;;2.88;0.80;;;;;;;;;;5079367;28;20028;-68
2022/07/04 08:38:33;;;;;;;4.82;1.00;;;;;;;;;;5074003;28;20079;-67
2022/07/04 08:40:59;;;;;;;4.30;0.90;;;;;;;;;;5082016;28;20102;-68
2022/07/04 08:43:26;;;;;;;2.75;0.85;;;;;;;;;;5084501;28;20464;-67
2022/07/04 08:45:52;;;;;;;3.25;0.77;;;;;;;;;;5079752;28;20365;-67
2022/07/04 08:48:20;;;;;;;4.93;0.90;;;;;;;;;;5087353;28;20012;-68
2022/07/04 08:50:49;;;;;;;3.78;0.88;;;;;;;;;;5081125;28;20476;-67
2022/07/04 08:53:17;;;;;;;2.75;0.80;;;;;;;;;;5088898;28;20081;-67
2022/07/04 08:58:33;;;;;;;4.00;0.82;;;;;;;;;;5089730;28;20086;-67
2022/07/04 09:01:08;;;;;;;4.03;0.88;;;;;;;;;;5073171;28;20046;-67
2022/07/04 09:03:33;;;;;;;5.40;1.00;;;;;;;;;;5080156;28;20028;-67
2022/07/04 09:05:59;;;;;;;2.67;0.85;;;;;;;;;;5083726;28;20028;-67
2022/07/04 09:08:26;;;;;;;3.33;0.90;;;;;;;;;;5085876;28;20040;-67
2022/07/04 09:10:51;;;;;;;3.83;0.88;;;;;;;;;;5084563;28;20043;-66
2022/07/04 09:13:17;;;;;;;3.53;0.88;;;;;;;;;;5085917;28;20046;-67
2022/07/04 09:15:43;;;;;;;3.60;0.70;;;;;;;;;;5073378;28;20039;-68
2022/07/04 09:18:25;;;;;;;3.50;0.80;;;;;;;;;;5088655;28;20043;-68
2022/07/04 09:20:51;;;;;;;3.08;0.70;;;;;;;;;;5082559;28;20482;-67
2022/07/04 09:23:17;;;;;;;3.60;1.00;;;;;;;;;;5073693;28;20040;-67
2022/07/04 09:25:43;;;;;;;6.15;0.88;;;;;;;;;;5081604;28;20051;-67
2022/07/04 09:28:08;;;;;;;2.78;0.90;;;;;;;;;;5086995;28;20404;-67
2022/07/04 09:30:33;;;;;;;2.60;0.80;;;;;;;;;;5077999;28;20064;-67
2022/07/04 09:33:02;;;;;;;3.67;1.00;;;;;;;;;;5086667;28;20107;-67
2022/07/04 09:35:29;;;;;;;3.40;0.90;;;;;;;;;;5088619;28;20024;-68
2022/07/04 09:37:56;;;;;;;2.15;0.85;;;;;;;;;;5087801;28;20024;-67
2022/07/04 09:40:24;;;;;;;2.05;0.63;;;;;;;;;;5086259;28;20065;-67
2022/07/04 09:42:49;;;;;;;3.90;0.90;;;;;;;;;;5087004;28;20039;-67
2022/07/04 09:45:14;;;;;;;3.15;0.80;;;;;;;;;;5086901;28;20024;-67
2022/07/04 09:47:40;;;;;;;5.60;0.88;;;;;;;;;;5075292;28;20032;-67
2022/07/04 09:50:07;;;;;;;5.65;0.90;;;;;;;;;;5083097;28;20025;-67
2022/07/04 09:52:53;;;;;;;2.42;0.70;;;;;;;;;;5074828;28;20043;-67
2022/07/04 09:55:26;;;;;;;4.03;0.70;;;;;;;;;;5084172;28;20489;-68
2022/07/04 09:57:52;;;;;;;5.63;0.77;;;;;;;;;;5077551;28;20020;-67
2022/07/04 10:00:18;;;;;;;3.83;0.70;;;;;;;;;;5077771;28;20025;-68
2022/07/04 10:02:44;;;;;;;5.35;0.80;;;;;;;;;;5080306;28;20522;-69
2022/07/04 10:05:09;;;;;;;3.05;0.80;;;;;;;;;;5088924;28;20032;-67
2022/07/04 10:07:40;;;;;;;2.58;0.90;;;;;;;;;;5088461;28;20058;-67
2022/07/04 10:10:24;;;;;;;2.67;0.80;;;;;;;;;;5084079;28;20476;-67
2022/07/04 10:12:50;;;;;;;2.50;0.60;;;;;;;;;;5080826;28;20020;-69
2022/07/04 10:15:16;;;;;;;3.47;1.00;;;;;;;;;;5080425;28;20353;-68
2022/07/04 10:17:41;;;;;;;3.65;1.10;;;;;;;;;;5087070;28;20039;-67
2022/07/04 10:20:07;;;;;;;4.07;0.80;;;;;;;;;;5084106;28;20019;-67
2022/07/04 10:22:32;;;;;;;4.28;0.68;;;;;;;;;;5082689;28;20357;-67
2022/07/04 10:24:57;;;;;;;5.82;0.82;;;;;;;;;;5082999;28;20496;-67
2022/07/04 10:27:23;;;;;;;2.75;0.80;;;;;;;;;;5080213;28;20095;-68
2022/07/04 10:29:48;;;;;;;3.35;0.80;;;;;;;;;;5094464;28;20024;-67
2022/07/04 10:32:14;;;;;;;2.80;0.60;;;;;;;;;;5090164;28;20078;-68
2022/07/04 10:34:40;;;;;;;2.90;0.70;;;;;;;;;;5074227;28;20020;-67
2022/07/04 10:37:05;;;;;;;2.72;0.70;;;;;;;;;;5090041;28;20016;-67
2022/07/04 10:39:30;;;;;;;3.13;0.65;;;;;;;;;;5074456;28;20078;-67
2022/07/04 10:41:58;;;;;;;4.70;0.82;;;;;;;;;;5079429;28;20027;-68
2022/07/04 10:44:25;;;;;;;5.50;0.95;;;;;;;;;;5081705;28;20013;-68
2022/07/04 10:46:51;;;;;;;3.47;0.70;;;;;;;;;;5077843;28;20125;-68
2022/07/04 10:49:17;;;;;;;2.97;0.70;;;;;;;;;;5079423;28;20048;-67
2022/07/04 10:51:45;;;;;;;3.30;0.70;;;;;;;;;;5080692;28;20036;-67
2022/07/04 10:54:12;;;;;;;2.95;0.70;;;;;;;;;;5082026;28;20379;-68
2022/07/04 10:56:48;;;;;;;2.65;0.60;;;;;;;;;;5076956;28;20480;-68
2022/07/04 10:59:15;;;;;;;3.17;0.82;;;;;;;;;;5089375;28;20038;-67
2022/07/04 11:01:44;;;;;;;3.35;0.90;;;;;;;;;;5081041;28;20035;-67
2022/07/04 11:04:10;;;;;;;2.88;0.60;;;;;;;;;;5079861;28;20357;-68
2022/07/04 11:06:35;;;;;;;2.35;0.60;;;;;;;;;;5081170;28;20031;-68
2022/07/04 11:09:12;;;;;;;2.45;0.68;;;;;;;;;;5080193;28;20431;-67
2022/07/04 11:11:56;;;;;;;4.43;0.73;;;;;;;;;;5079455;28;20376;-67
2022/07/04 11:14:38;;;;;;;3.58;0.90;;;;;;;;;;5076896;28;20031;-67
2022/07/04 11:17:05;;;;;;;2.60;0.80;;;;;;;;;;5074981;28;20024;-67
2022/07/04 11:19:30;;;;;;;4.03;0.70;;;;;;;;;;5087013;28;20028;-67
2022/07/04 11:21:56;;;;;;;5.60;1.25;;;;;;;;;;5073439;28;20506;-67
2022/07/04 11:24:22;;;;;;;2.65;0.90;;;;;;;;;;5077072;28;20008;-66
2022/07/04 11:26:47;;;;;;;3.28;0.90;;;;;;;;;;5084759;28;20024;-66
2022/07/04 11:29:13;;;;;;;3.97;0.85;;;;;;;;;;5076550;28;20376;-67
2022/07/04 11:31:39;;;;;;;2.00;0.60;;;;;;;;;;5088775;28;20142;-67
2022/07/04 11:34:04;;;;;;;2.78;0.77;;;;;;;;;;5082204;28;20015;-67
2022/07/04 11:36:29;;;;;;;2.72;0.77;;;;;;;;;;5074217;28;20115;-68
2022/07/04 11:38:56;;;;;;;4.28;1.27;;;;;;;;;;5080100;28;20031;-67
2022/07/04 11:47:21;;;;;;;6.82;1.77;;;;;;;;;;5086895;28;20103;-67
2022/07/04 11:49:49;;;;;;;3.70;0.93;;;;;;;;;;5080238;28;20035;-67
2022/07/04 11:52:15;;;;;;;4.88;1.08;;;;;;;;;;5076799;28;20116;-67
2022/07/04 11:54:41;;;;;;;5.50;1.05;;;;;;;;;;5072583;28;20423;-67
2022/07/04 11:57:09;;;;;;;4.20;0.93;;;;;;;;;;5081138;28;20020;-67
2022/07/04 11:59:35;;;;;;;5.90;1.17;;;;;;;;;;5086245;28;20020;-67
2022/07/04 12:02:09;;;;;;;5.32;1.00;;;;;;;;;;5083673;28;20099;-67
2022/07/04 12:04:34;;;;;;;2.83;0.85;;;;;;;;;;5087120;28;20477;-67
2022/07/04 12:07:07;;;;;;;2.63;0.80;;;;;;;;;;5078738;28;20024;-67
2022/07/04 12:09:33;;;;;;;3.85;1.00;;;;;;;;;;5086411;28;20028;-68
2022/07/04 12:11:58;;;;;;;5.32;0.90;;;;;;;;;;5079224;28;20017;-68
2022/07/04 12:14:25;;;;;;;4.32;0.90;;;;;;;;;;5083113;28;20028;-67
2022/07/04 12:17:07;;;;;;;3.08;1.00;;;;;;;;;;5081446;28;20016;-68
2022/07/04 12:19:33;;;;;;;5.45;1.08;;;;;;;;;;5072357;28;20107;-68
2022/07/04 12:21:58;;;;;;;3.72;0.90;;;;;;;;;;5072181;28;20120;-68
2022/07/04 12:24:26;;;;;;;3.42;0.88;;;;;;;;;;5071897;28;20033;-67
2022/07/04 12:26:51;;;;;;;3.90;0.98;;;;;;;;;;5079677;28;20024;-68
2022/07/04 12:29:27;;;;;;;3.17;1.00;;;;;;;;;;5092382;28;20012;-68
2022/07/04 12:31:55;;;;;;;4.72;0.90;;;;;;;;;;5092199;28;20035;-67
2022/07/04 12:34:21;;;;;;;2.22;0.80;;;;;;;;;;5089861;28;20086;-67
2022/07/04 12:36:53;;;;;;;4.28;1.10;;;;;;;;;;5091704;28;20486;-67
2022/07/04 12:39:32;;;;;;;5.07;1.10;;;;;;;;;;5091933;28;20052;-68
2022/07/04 12:42:11;;;;;;;3.13;0.80;;;;;;;;;;5072334;28;20035;-67
2022/07/04 12:44:37;;;;;;;4.20;1.08;;;;;;;;;;5071530;28;20025;-68
2022/07/04 12:47:03;;;;;;;3.60;0.80;;;;;;;;;;5071547;28;20116;-68
2022/07/04 12:49:29;;;;;;;4.20;1.10;;;;;;;;;;5086907;28;20099;-67
2022/07/04 12:52:10;;;;;;;4.80;1.10;;;;;;;;;;5081280;28;20516;-67
2022/07/04 12:54:36;;;;;;;2.58;0.80;;;;;;;;;;5071481;28;20012;-67
2022/07/04 12:57:22;;;;;;;3.08;0.88;;;;;;;;;;5071389;28;20495;-67
2022/07/04 12:59:47;;;;;;;3.55;0.80;;;;;;;;;;5074820;28;20040;-67
2022/07/04 13:02:13;;;;;;;3.90;0.93;;;;;;;;;;5080954;28;20030;-67
2022/07/04 13:04:38;;;;;;;2.40;0.90;;;;;;;;;;5083734;28;20479;-67
2022/07/04 13:07:14;;;;;;;4.30;0.98;;;;;;;;;;5073258;28;20032;-68
2022/07/04 13:09:40;;;;;;;2.63;0.63;;;;;;;;;;5071472;28;20013;-68
2022/07/04 13:12:24;;;;;;;5.20;1.10;;;;;;;;;;5071288;28;20472;-67
2022/07/04 13:14:51;;;;;;;3.60;1.05;;;;;;;;;;5088119;28;20367;-67
2022/07/04 13:17:16;;;;;;;2.83;0.85;;;;;;;;;;5082719;28;20395;-67
2022/07/04 13:19:41;;;;;;;3.15;0.90;;;;;;;;;;5083212;28;20031;-67
2022/07/04 13:22:07;;;;;;;6.03;0.95;;;;;;;;;;5071287;28;20100;-67
2022/07/04 13:24:32;;;;;;;2.47;0.90;;;;;;;;;;5085733;28;20435;-68
2022/07/04 13:26:58;;;;;;;4.35;0.80;;;;;;;;;;5091395;28;20456;-67
2022/07/04 13:29:23;;;;;;;3.22;0.70;;;;;;;;;;5091339;28;20032;-67
2022/07/04 13:31:49;;;;;;;5.10;1.13;;;;;;;;;;5089330;28;20043;-67
2022/07/04 13:34:14;;;;;;;4.03;0.90;;;;;;;;;;5087745;28;20040;-67
2022/07/04 13:36:40;;;;;;;2.40;0.80;;;;;;;;;;5081866;28;20103;-67
2022/07/04 13:39:05;;;;;;;3.17;0.80;;;;;;;;;;5071154;28;20113;-67
2022/07/04 13:41:33;;;;;;;3.78;0.90;;;;;;;;;;5071271;28;20025;-67
2022/07/04 13:44:04;;;;;;;4.95;0.90;;;;;;;;;;5071010;28;20124;-66
2022/07/04 13:46:29;;;;;;;4.97;1.10;;;;;;;;;;5070834;28;20017;-67
2022/07/04 13:48:55;;;;;;;2.67;0.90;;;;;;;;;;5072076;28;20297;-69
2022/07/04 13:51:20;;;;;;;2.25;0.68;;;;;;;;;;5075778;28;20028;-67
2022/07/04 13:53:45;;;;;;;2.92;0.90;;;;;;;;;;5075267;28;20021;-68
2022/07/04 13:56:12;;;;;;;4.78;0.93;;;;;;;;;;5073455;28;20028;-67
2022/07/04 13:58:37;;;;;;;1.88;0.80;;;;;;;;;;5077837;28;20086;-68
2022/07/04 14:01:03;;;;;;;3.53;0.88;;;;;;;;;;5086445;28;20414;-67
2022/07/04 14:03:28;;;;;;;4.63;1.10;;;;;;;;;;5084582;28;20027;-68
2022/07/04 14:05:53;;;;;;;5.15;1.00;;;;;;;;;;5074071;28;20034;-68
2022/07/04 14:08:19;;;;;;;3.08;1.17;;;;;;;;;;5080991;28;20027;-68
2022/07/04 14:10:44;;;;;;;3.47;0.90;;;;;;;;;;5088665;28;20043;-69
2022/07/04 14:13:09;;;;;;;4.10;1.20;;;;;;;;;;5089981;28;20016;-69
2022/07/04 14:15:34;;;;;;;4.68;1.10;;;;;;;;;;5077092;28;20031;-67
2022/07/04 14:18:00;;;;;;;4.93;1.10;;;;;;;;;;5091211;28;20413;-67
2022/07/04 14:20:25;;;;;;;5.97;1.20;;;;;;;;;;5085919;28;20557;-67
2022/07/04 14:22:51;;;;;;;3.67;0.90;;;;;;;;;;5082081;28;20024;-67
2022/07/04 14:25:16;;;;;;;3.72;1.10;;;;;;;;;;5074920;28;20024;-67
2022/07/04 14:27:41;;;;;;;3.20;1.00;;;;;;;;;;5084788;28;20063;-68
2022/07/04 14:30:07;;;;;;;3.95;1.10;;;;;;;;;;5085300;28;20495;-67
2022/07/04 14:32:33;;;;;;;5.28;1.30;;;;;;;;;;5080864;28;20024;-67
2022/07/04 14:34:58;;;;;;;4.43;1.23;;;;;;;;;;5078635;28;20031;-67
2022/07/04 14:37:23;;;;;;;6.28;1.20;;;;;;;;;;5073946;28;20046;-67
2022/07/04 14:39:49;;;;;;;3.35;1.00;;;;;;;;;;5074370;28;20028;-67
2022/07/04 14:42:14;;;;;;;3.42;1.02;;;;;;;;;;5084261;28;20008;-67
2022/07/04 14:44:39;;;;;;;4.47;1.20;;;;;;;;;;5094668;28;20414;-67
2022/07/04 14:47:05;;;;;;;3.35;1.00;;;;;;;;;;5092167;28;20402;-68